createdAt,value
2023-04-13T00:02:19.363Z,14
2023-04-13T00:08:12.339Z,14
2023-04-13T00:14:04.816Z,14
2023-04-13T00:19:57.166Z,14.1
2023-04-13T00:25:48.047Z,14
2023-04-13T00:31:40.034Z,14
2023-04-13T00:37:31.515Z,14
2023-04-13T00:43:22.473Z,14
2023-04-13T00:49:14.993Z,14.1
2023-04-13T00:55:06.747Z,14.1
2023-04-13T01:00:57.594Z,14.1
2023-04-13T01:06:51.413Z,14
2023-04-13T01:12:26.610Z,14
2023-04-13T01:18:34.505Z,14
2023-04-13T01:25:04.448Z,14.1
2023-04-13T01:30:56.001Z,14.1
2023-04-13T01:36:32.666Z,14
2023-04-13T01:42:24.107Z,14.1
2023-04-13T01:48:15.442Z,14.1
2023-04-13T01:53:51.342Z,14.1
2023-04-13T01:59:43.198Z,14.1
2023-04-13T02:05:37.389Z,14
2023-04-13T02:11:28.423Z,14.1
2023-04-13T02:17:19.940Z,14
2023-04-13T02:23:10.713Z,14.1
2023-04-13T02:29:02.773Z,14.1
2023-04-13T02:34:54.928Z,14
2023-04-13T02:40:46.351Z,14.1
2023-04-13T02:46:37.672Z,14.1
2023-04-13T02:52:28.943Z,14.1
2023-04-13T02:58:20.047Z,14.1
2023-04-13T03:04:12.240Z,14.1
2023-04-13T03:10:05.579Z,14.1
2023-04-13T03:15:42.406Z,14.1
2023-04-13T03:21:33.316Z,14.1
2023-04-13T03:27:25.976Z,14.1
2023-04-13T03:33:17.673Z,14.1
2023-04-13T03:39:09.926Z,14.1
2023-04-13T03:45:02.395Z,14.1
2023-04-13T03:50:38.714Z,14.1
2023-04-13T03:56:30.331Z,14.1
2023-04-13T04:02:22.306Z,14.1
2023-04-13T04:08:15.502Z,14.1
2023-04-13T04:14:10.091Z,14.1
2023-04-13T04:20:04.925Z,14.1
2023-04-13T04:25:56.527Z,14.1
2023-04-13T04:31:47.726Z,14.1
2023-04-13T04:37:40.967Z,14
2023-04-13T04:43:17.121Z,14.1
2023-04-13T04:48:53.040Z,14
2023-04-13T04:54:44.916Z,14.1
2023-04-13T05:00:36.842Z,14.1
2023-04-13T05:06:13.930Z,14.1
2023-04-13T05:12:05.933Z,14.1
2023-04-13T05:17:57.868Z,14.1
2023-04-13T05:23:51.440Z,14.1
2023-04-13T05:29:45.008Z,14.1
2023-04-13T05:35:37.567Z,14.1
2023-04-13T05:41:28.499Z,14.1
2023-04-13T05:47:21.669Z,14.1
2023-04-13T05:53:13.575Z,14.1
2023-04-13T05:59:04.108Z,14.1
2023-04-13T06:05:00.969Z,14.1
2023-04-13T06:10:52.685Z,14.1
2023-04-13T06:16:44.671Z,14.1
2023-04-13T06:22:37.764Z,14.1
2023-04-13T06:28:29.729Z,14.1
2023-04-13T06:34:21.833Z,14.1
2023-04-13T06:40:17.233Z,14.1
2023-04-13T06:46:03.842Z,14.1
2023-04-13T06:51:55.314Z,14.1
2023-04-13T06:57:46.992Z,14.6
2023-04-13T07:03:53.581Z,14.3
2023-04-13T07:09:47.982Z,14.2
2023-04-13T07:15:40.654Z,14.4
2023-04-13T07:21:17.190Z,14.8
2023-04-13T07:27:07.407Z,14.9
2023-04-13T07:33:03.917Z,15
2023-04-13T07:38:58.586Z,15.9
2023-04-13T07:44:49.986Z,16.4
2023-04-13T07:50:42.329Z,16.5
2023-04-13T07:56:33.809Z,17.1
2023-04-13T08:02:24.565Z,18.1
2023-04-13T08:08:21.430Z,18.3
2023-04-13T08:19:52.186Z,20.1
2023-04-13T08:25:46.368Z,21.4
2023-04-13T08:31:39.254Z,22.6
2023-04-13T08:37:30.710Z,23.8
2023-04-13T08:43:24.746Z,24.9
2023-04-13T08:49:26.478Z,26.1
2023-04-13T08:55:01.580Z,27.3
2023-04-13T09:01:01.237Z,28.4
2023-04-13T09:07:10.050Z,29.6
2023-04-13T09:13:00.936Z,30.7
2023-04-13T09:18:37.761Z,31.8
2023-04-13T09:24:28.628Z,32.8
2023-04-13T09:32:49.134Z,34.4
2023-04-13T09:38:18.711Z,35.4
2023-04-13T09:43:40.042Z,36.4
2023-04-13T09:49:00.792Z,37.3
2023-04-13T09:54:38.100Z,38.3
2023-04-13T10:00:14.267Z,39.3
2023-04-13T10:06:16.413Z,40.3
2023-04-13T10:11:55.589Z,41.3
2023-04-13T10:17:56.644Z,42.3
2023-04-13T10:23:50.574Z,43.3
2023-04-13T10:29:59.322Z,44.3
2023-04-13T10:35:42.135Z,45.1
2023-04-13T10:41:34.954Z,46.1
2023-04-13T10:47:29.834Z,46.9
2023-04-13T10:52:51.000Z,47.7
2023-04-13T10:58:31.966Z,48.5
2023-04-13T11:04:54.486Z,49.3
2023-04-13T11:10:22.535Z,50.1
2023-04-13T11:16:00.518Z,50.8
2023-04-13T11:21:41.546Z,51.4
2023-04-13T11:27:17.990Z,52.1
2023-04-13T11:32:37.802Z,52.8
2023-04-13T11:38:14.418Z,53.4
2023-04-13T11:44:04.704Z,54.1
2023-04-13T11:49:56.513Z,54.6
2023-04-13T11:56:10.466Z,55.2
2023-04-13T12:02:10.589Z,55.3
2023-04-13T12:08:39.567Z,55.3
2023-04-13T12:17:57.907Z,55.7
2023-04-13T12:24:12.559Z,56.4
2023-04-13T12:30:28.231Z,56.3
2023-04-13T12:36:19.653Z,56.4
2023-04-13T12:42:13.001Z,57
2023-04-13T12:48:04.621Z,57.1
2023-04-13T12:53:57.238Z,57.1
2023-04-13T12:59:49.257Z,57
2023-04-13T13:05:49.603Z,57.4
2023-04-13T13:11:52.569Z,57.4
2023-04-13T13:17:45.090Z,57.3
2023-04-13T13:23:51.521Z,57.1
2023-04-13T13:31:04.615Z,57.3
2023-04-13T13:36:56.919Z,57.1
2023-04-13T13:42:44.354Z,57.1
2023-04-13T13:48:11.765Z,57
2023-04-13T13:54:20.987Z,56.9
2023-04-13T14:00:11.952Z,56.9
2023-04-13T14:05:49.407Z,56.8
2023-04-13T14:11:41.031Z,56.7
2023-04-13T14:17:27.885Z,56.6
2023-04-13T14:23:31.228Z,56.5
2023-04-13T14:29:22.284Z,56.4
2023-04-13T14:35:13.560Z,56.4
2023-04-13T14:41:07.652Z,56.3
2023-04-13T14:46:59.614Z,56.2
2023-04-13T14:52:51.920Z,56.1
2023-04-13T14:58:44.001Z,56
2023-04-13T15:04:38.564Z,55.9
2023-04-13T15:10:32.543Z,55.8
2023-04-13T15:16:26.691Z,55.8
2023-04-13T15:22:19.648Z,55.7
2023-04-13T15:28:11.573Z,55.6
2023-04-13T15:34:04.176Z,55.5
2023-04-13T15:39:56.537Z,55.4
2023-04-13T15:45:48.196Z,55.3
2023-04-13T15:51:40.632Z,55.1
2023-04-13T15:57:32.126Z,54.9
2023-04-13T16:03:25.246Z,54.8
2023-04-13T16:09:20.525Z,54.7
2023-04-13T16:15:26.826Z,54.6
2023-04-13T16:21:19.601Z,54.4
2023-04-13T16:27:12.026Z,54.3
2023-04-13T16:33:05.134Z,54.2
2023-04-13T16:39:13.106Z,54
2023-04-13T16:45:04.914Z,53.9
2023-04-13T16:50:42.219Z,53.8
2023-04-13T16:56:34.412Z,53.6
2023-04-13T17:02:44.989Z,53.5
2023-04-13T17:08:38.150Z,53.4
2023-04-13T17:14:14.141Z,53.3
2023-04-13T17:19:51.659Z,53.2
2023-04-13T17:25:43.932Z,53.1
2023-04-13T17:31:35.929Z,53
2023-04-13T17:37:31.461Z,52.9
2023-04-13T17:43:24.008Z,52.8
2023-04-13T17:49:16.726Z,52.7
2023-04-13T17:55:08.911Z,52.6
2023-04-13T18:01:03.017Z,52.6
2023-04-13T18:06:43.200Z,52.5
2023-04-13T18:12:36.523Z,52.4
2023-04-13T18:23:36.272Z,52.3
2023-04-13T18:28:57.571Z,52.3
2023-04-13T18:34:36.149Z,52.1
2023-04-13T18:40:27.782Z,52.1
2023-04-13T18:45:49.012Z,52.1
2023-04-13T18:51:25.727Z,52
2023-04-13T19:02:56.018Z,51.9
2023-04-13T19:08:36.740Z,51.8
2023-04-13T19:14:28.607Z,51.8
2023-04-13T19:20:21.227Z,51.7
2023-04-13T19:26:14.984Z,51.6
2023-04-13T19:32:07.501Z,51.6
2023-04-13T19:37:45.440Z,51.5
2023-04-13T19:43:38.117Z,51.4
2023-04-13T19:49:30.878Z,51.4
2023-04-13T19:55:23.317Z,51.3
2023-04-13T20:01:15.924Z,51.3
2023-04-13T20:07:09.527Z,51.2
2023-04-13T20:13:01.314Z,51.1
2023-04-13T20:18:53.879Z,51.1
2023-04-13T20:24:46.632Z,51
2023-04-13T20:30:41.078Z,50.9
2023-04-13T20:36:33.750Z,50.9
2023-04-13T20:42:10.598Z,50.9
2023-04-13T20:48:48.202Z,50.8
2023-04-13T20:54:40.710Z,50.7
2023-04-13T21:00:32.483Z,50.6
2023-04-13T21:06:26.055Z,50.6
2023-04-13T21:12:18.545Z,50.6
2023-04-13T21:18:11.550Z,50.5
2023-04-13T21:24:06.239Z,50.4
2023-04-13T21:29:57.880Z,50.4
2023-04-13T21:35:33.684Z,50.3
2023-04-13T21:41:19.455Z,50.3
2023-04-13T21:47:19.005Z,50.2
2023-04-13T21:53:10.272Z,50.2
2023-04-13T21:59:04.714Z,50.1
2023-04-13T22:04:59.138Z,50.1
2023-04-13T22:11:04.181Z,50
2023-04-13T22:16:56.238Z,49.9
2023-04-13T22:22:50.117Z,49.9
2023-04-13T22:28:26.322Z,49.8
2023-04-13T22:34:18.947Z,49.8
2023-04-13T22:40:10.887Z,49.7
2023-04-13T22:46:01.973Z,49.7
2023-04-13T22:51:53.725Z,49.6
2023-04-13T22:57:45.697Z,49.6
2023-04-13T23:03:22.765Z,49.5
2023-04-13T23:09:19.326Z,49.4
2023-04-13T23:14:55.679Z,49.4
2023-04-13T23:20:32.390Z,49.3
2023-04-13T23:26:24.861Z,49.3
2023-04-13T23:32:16.497Z,49.3
2023-04-13T23:38:08.598Z,49.2
2023-04-13T23:43:59.626Z,49.1
2023-04-13T23:49:51.976Z,49.1
2023-04-13T23:55:43.379Z,49
